sensor_id;sensor_type;location;lat;lon;timestamp;P1;durP1;ratioP1;P2;durP2;ratioP2
25263;SDS011;13211;51.796;5.808;2022-07-29T00:03:32;5.77;;;1.50;;
25263;SDS011;13211;51.796;5.808;2022-07-29T00:06:00;3.30;;;1.30;;
25263;SDS011;13211;51.796;5.808;2022-07-29T00:08:28;6.80;;;1.73;;
25263;SDS011;13211;51.796;5.808;2022-07-29T00:10:56;4.85;;;1.63;;
25263;SDS011;13211;51.796;5.808;2022-07-29T00:13:23;7.20;;;1.65;;
25263;SDS011;13211;51.796;5.808;2022-07-29T00:15:58;2.92;;;1.20;;
25263;SDS011;13211;51.796;5.808;2022-07-29T00:18:30;6.18;;;1.30;;
25263;SDS011;13211;51.796;5.808;2022-07-29T00:20:58;4.68;;;1.00;;
25263;SDS011;13211;51.796;5.808;2022-07-29T00:23:26;6.25;;;1.10;;
25263;SDS011;13211;51.796;5.808;2022-07-29T00:25:56;4.88;;;1.52;;
25263;SDS011;13211;51.796;5.808;2022-07-29T00:28:23;4.65;;;1.48;;
25263;SDS011;13211;51.796;5.808;2022-07-29T00:30:51;9.70;;;1.73;;
25263;SDS011;13211;51.796;5.808;2022-07-29T00:33:18;8.18;;;1.20;;
25263;SDS011;13211;51.796;5.808;2022-07-29T00:35:47;4.53;;;1.13;;
25263;SDS011;13211;51.796;5.808;2022-07-29T00:38:17;3.80;;;1.20;;
25263;SDS011;13211;51.796;5.808;2022-07-29T00:40:45;6.97;;;1.20;;
25263;SDS011;13211;51.796;5.808;2022-07-29T00:43:16;9.80;;;1.30;;
25263;SDS011;13211;51.796;5.808;2022-07-29T00:45:45;5.38;;;1.40;;
25263;SDS011;13211;51.796;5.808;2022-07-29T00:48:14;6.07;;;1.42;;
25263;SDS011;13211;51.796;5.808;2022-07-29T00:50:42;4.90;;;1.40;;
25263;SDS011;13211;51.796;5.808;2022-07-29T00:53:11;4.25;;;1.23;;
25263;SDS011;13211;51.796;5.808;2022-07-29T00:55:39;2.50;;;1.00;;
25263;SDS011;13211;51.796;5.808;2022-07-29T00:58:12;4.38;;;1.23;;
25263;SDS011;13211;51.796;5.808;2022-07-29T01:00:43;4.05;;;1.10;;
25263;SDS011;13211;51.796;5.808;2022-07-29T01:05:41;5.43;;;1.30;;
25263;SDS011;13211;51.796;5.808;2022-07-29T01:08:17;6.80;;;1.45;;
25263;SDS011;13211;51.796;5.808;2022-07-29T01:10:46;6.22;;;1.20;;
25263;SDS011;13211;51.796;5.808;2022-07-29T01:13:15;6.65;;;1.30;;
25263;SDS011;13211;51.796;5.808;2022-07-29T01:15:49;6.33;;;1.27;;
25263;SDS011;13211;51.796;5.808;2022-07-29T01:18:27;4.28;;;1.30;;
25263;SDS011;13211;51.796;5.808;2022-07-29T01:29:49;3.33;;;1.17;;
25263;SDS011;13211;51.796;5.808;2022-07-29T01:32:29;12.63;;;1.60;;
25263;SDS011;13211;51.796;5.808;2022-07-29T01:36:01;5.93;;;1.60;;
25263;SDS011;13211;51.796;5.808;2022-07-29T01:38:08;2.28;;;1.25;;
25263;SDS011;13211;51.796;5.808;2022-07-29T01:43:17;4.43;;;1.75;;
25263;SDS011;13211;51.796;5.808;2022-07-29T01:48:41;5.80;;;1.48;;
25263;SDS011;13211;51.796;5.808;2022-07-29T01:51:19;4.85;;;1.33;;
25263;SDS011;13211;51.796;5.808;2022-07-29T01:54:11;5.10;;;1.30;;
25263;SDS011;13211;51.796;5.808;2022-07-29T01:56:46;8.38;;;1.40;;
25263;SDS011;13211;51.796;5.808;2022-07-29T01:59:16;5.82;;;1.40;;
25263;SDS011;13211;51.796;5.808;2022-07-29T02:01:47;3.63;;;1.33;;
25263;SDS011;13211;51.796;5.808;2022-07-29T02:04:20;5.68;;;1.58;;
25263;SDS011;13211;51.796;5.808;2022-07-29T02:06:57;6.03;;;1.70;;
25263;SDS011;13211;51.796;5.808;2022-07-29T02:09:28;5.53;;;1.70;;
25263;SDS011;13211;51.796;5.808;2022-07-29T02:11:59;4.57;;;1.65;;
25263;SDS011;13211;51.796;5.808;2022-07-29T02:16:59;14.55;;;2.20;;
25263;SDS011;13211;51.796;5.808;2022-07-29T02:19:29;4.20;;;1.70;;
25263;SDS011;13211;51.796;5.808;2022-07-29T02:22:00;8.52;;;2.55;;
25263;SDS011;13211;51.796;5.808;2022-07-29T02:24:28;7.47;;;1.80;;
25263;SDS011;13211;51.796;5.808;2022-07-29T02:27:00;5.60;;;1.88;;
25263;SDS011;13211;51.796;5.808;2022-07-29T02:29:32;7.28;;;2.03;;
25263;SDS011;13211;51.796;5.808;2022-07-29T02:32:01;5.45;;;2.30;;
25263;SDS011;13211;51.796;5.808;2022-07-29T02:34:30;5.57;;;2.15;;
25263;SDS011;13211;51.796;5.808;2022-07-29T02:39:29;3.55;;;2.00;;
25263;SDS011;13211;51.796;5.808;2022-07-29T02:42:00;4.82;;;2.20;;
25263;SDS011;13211;51.796;5.808;2022-07-29T02:44:31;5.53;;;2.38;;
25263;SDS011;13211;51.796;5.808;2022-07-29T02:47:07;8.23;;;2.33;;
25263;SDS011;13211;51.796;5.808;2022-07-29T02:52:57;6.13;;;2.35;;
25263;SDS011;13211;51.796;5.808;2022-07-29T03:01:11;5.82;;;2.50;;
25263;SDS011;13211;51.796;5.808;2022-07-29T03:03:48;7.10;;;2.92;;
25263;SDS011;13211;51.796;5.808;2022-07-29T03:06:19;8.90;;;2.55;;
25263;SDS011;13211;51.796;5.808;2022-07-29T03:09:06;9.35;;;3.00;;
25263;SDS011;13211;51.796;5.808;2022-07-29T03:11:41;8.05;;;3.17;;
25263;SDS011;13211;51.796;5.808;2022-07-29T03:14:18;7.50;;;3.00;;
25263;SDS011;13211;51.796;5.808;2022-07-29T03:16:48;6.07;;;3.05;;
25263;SDS011;13211;51.796;5.808;2022-07-29T03:19:18;11.50;;;3.28;;
25263;SDS011;13211;51.796;5.808;2022-07-29T03:21:50;7.22;;;3.15;;
25263;SDS011;13211;51.796;5.808;2022-07-29T03:24:28;7.43;;;3.20;;
25263;SDS011;13211;51.796;5.808;2022-07-29T03:27:00;8.10;;;3.25;;
25263;SDS011;13211;51.796;5.808;2022-07-29T03:29:31;5.97;;;2.85;;
25263;SDS011;13211;51.796;5.808;2022-07-29T03:32:03;4.75;;;3.30;;
25263;SDS011;13211;51.796;5.808;2022-07-29T03:34:35;8.55;;;3.25;;
25263;SDS011;13211;51.796;5.808;2022-07-29T03:37:05;11.23;;;3.28;;
25263;SDS011;13211;51.796;5.808;2022-07-29T03:39:35;6.97;;;3.40;;
25263;SDS011;13211;51.796;5.808;2022-07-29T03:42:08;5.20;;;3.30;;
25263;SDS011;13211;51.796;5.808;2022-07-29T03:44:41;9.70;;;3.67;;
25263;SDS011;13211;51.796;5.808;2022-07-29T03:47:11;4.53;;;3.28;;
25263;SDS011;13211;51.796;5.808;2022-07-29T03:49:44;5.00;;;3.35;;
25263;SDS011;13211;51.796;5.808;2022-07-29T03:52:17;6.90;;;3.20;;
25263;SDS011;13211;51.796;5.808;2022-07-29T03:54:45;8.25;;;2.80;;
25263;SDS011;13211;51.796;5.808;2022-07-29T03:57:18;5.68;;;3.40;;
25263;SDS011;13211;51.796;5.808;2022-07-29T03:59:51;7.03;;;2.88;;
25263;SDS011;13211;51.796;5.808;2022-07-29T04:02:20;6.15;;;3.30;;
25263;SDS011;13211;51.796;5.808;2022-07-29T04:04:56;6.53;;;3.22;;
25263;SDS011;13211;51.796;5.808;2022-07-29T04:07:24;5.63;;;2.85;;
25263;SDS011;13211;51.796;5.808;2022-07-29T04:09:52;10.63;;;3.35;;
25263;SDS011;13211;51.796;5.808;2022-07-29T04:12:19;4.50;;;3.15;;
25263;SDS011;13211;51.796;5.808;2022-07-29T04:14:47;6.32;;;3.20;;
25263;SDS011;13211;51.796;5.808;2022-07-29T04:17:16;9.93;;;3.50;;
25263;SDS011;13211;51.796;5.808;2022-07-29T04:19:45;5.97;;;3.13;;
25263;SDS011;13211;51.796;5.808;2022-07-29T04:22:12;7.35;;;3.13;;
25263;SDS011;13211;51.796;5.808;2022-07-29T04:24:40;5.05;;;2.90;;
25263;SDS011;13211;51.796;5.808;2022-07-29T04:27:11;8.10;;;3.53;;
25263;SDS011;13211;51.796;5.808;2022-07-29T04:29:40;9.82;;;3.00;;
25263;SDS011;13211;51.796;5.808;2022-07-29T04:32:23;10.57;;;3.40;;
25263;SDS011;13211;51.796;5.808;2022-07-29T04:34:51;9.75;;;3.20;;
25263;SDS011;13211;51.796;5.808;2022-07-29T04:37:19;7.53;;;3.45;;
25263;SDS011;13211;51.796;5.808;2022-07-29T04:39:47;6.57;;;3.10;;
25263;SDS011;13211;51.796;5.808;2022-07-29T04:42:15;8.35;;;3.10;;
25263;SDS011;13211;51.796;5.808;2022-07-29T04:44:50;5.88;;;3.00;;
25263;SDS011;13211;51.796;5.808;2022-07-29T04:47:18;8.45;;;3.20;;
25263;SDS011;13211;51.796;5.808;2022-07-29T04:49:46;8.27;;;3.50;;
25263;SDS011;13211;51.796;5.808;2022-07-29T04:52:14;7.90;;;3.38;;
25263;SDS011;13211;51.796;5.808;2022-07-29T04:54:42;6.00;;;3.50;;
25263;SDS011;13211;51.796;5.808;2022-07-29T04:57:10;7.35;;;3.50;;
25263;SDS011;13211;51.796;5.808;2022-07-29T04:59:38;8.38;;;3.65;;
25263;SDS011;13211;51.796;5.808;2022-07-29T05:02:07;10.05;;;3.30;;
25263;SDS011;13211;51.796;5.808;2022-07-29T05:04:34;7.32;;;3.35;;
25263;SDS011;13211;51.796;5.808;2022-07-29T05:07:02;7.90;;;3.10;;
25263;SDS011;13211;51.796;5.808;2022-07-29T05:09:32;9.27;;;3.45;;
25263;SDS011;13211;51.796;5.808;2022-07-29T05:12:00;7.30;;;3.20;;
25263;SDS011;13211;51.796;5.808;2022-07-29T05:14:28;8.70;;;3.22;;
25263;SDS011;13211;51.796;5.808;2022-07-29T05:16:56;5.72;;;3.20;;
25263;SDS011;13211;51.796;5.808;2022-07-29T05:19:25;7.05;;;3.40;;
25263;SDS011;13211;51.796;5.808;2022-07-29T05:21:52;4.72;;;3.20;;
25263;SDS011;13211;51.796;5.808;2022-07-29T05:24:20;11.55;;;3.63;;
25263;SDS011;13211;51.796;5.808;2022-07-29T05:26:47;6.15;;;3.25;;
25263;SDS011;13211;51.796;5.808;2022-07-29T05:29:16;8.73;;;3.60;;
25263;SDS011;13211;51.796;5.808;2022-07-29T05:32:07;8.40;;;3.20;;
25263;SDS011;13211;51.796;5.808;2022-07-29T05:34:35;6.78;;;3.58;;
25263;SDS011;13211;51.796;5.808;2022-07-29T05:37:18;6.85;;;3.42;;
25263;SDS011;13211;51.796;5.808;2022-07-29T05:39:46;8.93;;;3.03;;
25263;SDS011;13211;51.796;5.808;2022-07-29T05:42:22;10.80;;;3.65;;
25263;SDS011;13211;51.796;5.808;2022-07-29T05:44:51;6.57;;;3.28;;
25263;SDS011;13211;51.796;5.808;2022-07-29T05:47:19;8.80;;;3.55;;
25263;SDS011;13211;51.796;5.808;2022-07-29T05:49:47;4.30;;;2.80;;
25263;SDS011;13211;51.796;5.808;2022-07-29T05:52:15;8.15;;;3.17;;
25263;SDS011;13211;51.796;5.808;2022-07-29T05:54:43;27.13;;;4.53;;
25263;SDS011;13211;51.796;5.808;2022-07-29T05:57:19;15.90;;;3.60;;
25263;SDS011;13211;51.796;5.808;2022-07-29T05:59:48;8.60;;;3.60;;
25263;SDS011;13211;51.796;5.808;2022-07-29T06:02:17;13.05;;;3.45;;
25263;SDS011;13211;51.796;5.808;2022-07-29T06:04:45;13.73;;;3.72;;
25263;SDS011;13211;51.796;5.808;2022-07-29T06:07:13;12.13;;;4.38;;
25263;SDS011;13211;51.796;5.808;2022-07-29T06:09:44;9.00;;;3.72;;
25263;SDS011;13211;51.796;5.808;2022-07-29T06:12:13;9.23;;;3.33;;
25263;SDS011;13211;51.796;5.808;2022-07-29T06:14:46;11.23;;;3.88;;
25263;SDS011;13211;51.796;5.808;2022-07-29T06:17:19;8.77;;;3.70;;
25263;SDS011;13211;51.796;5.808;2022-07-29T06:19:47;6.25;;;3.38;;
25263;SDS011;13211;51.796;5.808;2022-07-29T06:22:15;7.85;;;3.30;;
25263;SDS011;13211;51.796;5.808;2022-07-29T06:24:46;7.25;;;3.30;;
25263;SDS011;13211;51.796;5.808;2022-07-29T06:27:15;10.20;;;3.28;;
25263;SDS011;13211;51.796;5.808;2022-07-29T06:29:43;7.63;;;3.50;;
25263;SDS011;13211;51.796;5.808;2022-07-29T06:32:13;9.48;;;3.22;;
25263;SDS011;13211;51.796;5.808;2022-07-29T06:34:42;6.55;;;3.33;;
25263;SDS011;13211;51.796;5.808;2022-07-29T06:37:15;6.05;;;3.30;;
25263;SDS011;13211;51.796;5.808;2022-07-29T06:39:46;5.55;;;3.28;;
25263;SDS011;13211;51.796;5.808;2022-07-29T06:42:17;8.30;;;2.85;;
25263;SDS011;13211;51.796;5.808;2022-07-29T06:47:13;7.45;;;3.10;;
25263;SDS011;13211;51.796;5.808;2022-07-29T06:49:44;9.57;;;3.45;;
25263;SDS011;13211;51.796;5.808;2022-07-29T06:52:14;10.68;;;2.97;;
25263;SDS011;13211;51.796;5.808;2022-07-29T06:54:43;7.20;;;3.08;;
25263;SDS011;13211;51.796;5.808;2022-07-29T06:57:15;5.63;;;2.70;;
25263;SDS011;13211;51.796;5.808;2022-07-29T06:59:44;8.68;;;3.45;;
25263;SDS011;13211;51.796;5.808;2022-07-29T07:02:13;10.23;;;3.63;;
25263;SDS011;13211;51.796;5.808;2022-07-29T07:04:55;7.18;;;3.47;;
25263;SDS011;13211;51.796;5.808;2022-07-29T07:07:23;9.52;;;3.67;;
25263;SDS011;13211;51.796;5.808;2022-07-29T07:09:54;7.30;;;3.50;;
25263;SDS011;13211;51.796;5.808;2022-07-29T07:12:22;4.68;;;3.25;;
25263;SDS011;13211;51.796;5.808;2022-07-29T07:14:49;7.00;;;3.50;;
25263;SDS011;13211;51.796;5.808;2022-07-29T07:17:17;8.98;;;3.20;;
25263;SDS011;13211;51.796;5.808;2022-07-29T07:19:46;8.27;;;3.70;;
25263;SDS011;13211;51.796;5.808;2022-07-29T07:22:15;5.45;;;3.20;;
25263;SDS011;13211;51.796;5.808;2022-07-29T07:24:43;8.18;;;3.03;;
25263;SDS011;13211;51.796;5.808;2022-07-29T07:27:12;6.90;;;3.40;;
25263;SDS011;13211;51.796;5.808;2022-07-29T07:29:41;6.63;;;2.97;;
25263;SDS011;13211;51.796;5.808;2022-07-29T07:32:11;5.57;;;2.97;;
25263;SDS011;13211;51.796;5.808;2022-07-29T07:34:42;6.05;;;2.80;;
25263;SDS011;13211;51.796;5.808;2022-07-29T07:37:12;7.18;;;3.15;;
25263;SDS011;13211;51.796;5.808;2022-07-29T07:39:43;7.90;;;3.53;;
25263;SDS011;13211;51.796;5.808;2022-07-29T07:42:15;5.90;;;2.80;;
25263;SDS011;13211;51.796;5.808;2022-07-29T07:44:43;7.45;;;2.88;;
25263;SDS011;13211;51.796;5.808;2022-07-29T07:47:35;7.78;;;3.38;;
25263;SDS011;13211;51.796;5.808;2022-07-29T07:50:05;8.57;;;3.75;;
25263;SDS011;13211;51.796;5.808;2022-07-29T07:52:50;4.85;;;3.10;;
25263;SDS011;13211;51.796;5.808;2022-07-29T07:55:20;7.88;;;3.88;;
25263;SDS011;13211;51.796;5.808;2022-07-29T07:57:47;5.88;;;3.33;;
25263;SDS011;13211;51.796;5.808;2022-07-29T08:00:16;11.75;;;3.97;;
25263;SDS011;13211;51.796;5.808;2022-07-29T08:02:45;14.45;;;3.80;;
25263;SDS011;13211;51.796;5.808;2022-07-29T08:05:14;6.60;;;3.72;;
25263;SDS011;13211;51.796;5.808;2022-07-29T08:07:46;9.00;;;3.85;;
25263;SDS011;13211;51.796;5.808;2022-07-29T08:10:14;6.78;;;2.88;;
25263;SDS011;13211;51.796;5.808;2022-07-29T08:13:06;6.60;;;3.17;;
25263;SDS011;13211;51.796;5.808;2022-07-29T08:15:40;10.00;;;3.83;;
25263;SDS011;13211;51.796;5.808;2022-07-29T08:18:15;11.38;;;3.00;;
25263;SDS011;13211;51.796;5.808;2022-07-29T08:20:47;8.30;;;2.90;;
25263;SDS011;13211;51.796;5.808;2022-07-29T08:23:15;8.95;;;2.75;;
25263;SDS011;13211;51.796;5.808;2022-07-29T08:25:43;6.75;;;2.90;;
25263;SDS011;13211;51.796;5.808;2022-07-29T08:28:16;8.65;;;3.20;;
25263;SDS011;13211;51.796;5.808;2022-07-29T08:30:45;9.02;;;2.63;;
25263;SDS011;13211;51.796;5.808;2022-07-29T08:33:15;5.18;;;2.92;;
25263;SDS011;13211;51.796;5.808;2022-07-29T08:35:42;7.30;;;3.38;;
25263;SDS011;13211;51.796;5.808;2022-07-29T08:38:11;7.53;;;3.70;;
25263;SDS011;13211;51.796;5.808;2022-07-29T08:40:40;7.15;;;3.72;;
25263;SDS011;13211;51.796;5.808;2022-07-29T08:43:11;9.15;;;3.00;;
25263;SDS011;13211;51.796;5.808;2022-07-29T08:45:48;7.32;;;3.22;;
25263;SDS011;13211;51.796;5.808;2022-07-29T08:48:23;10.30;;;2.80;;
25263;SDS011;13211;51.796;5.808;2022-07-29T08:50:55;14.18;;;3.05;;
25263;SDS011;13211;51.796;5.808;2022-07-29T08:53:25;7.50;;;3.60;;
25263;SDS011;13211;51.796;5.808;2022-07-29T08:55:56;8.45;;;3.05;;
25263;SDS011;13211;51.796;5.808;2022-07-29T08:58:25;14.00;;;3.60;;
25263;SDS011;13211;51.796;5.808;2022-07-29T09:01:02;7.65;;;3.45;;
25263;SDS011;13211;51.796;5.808;2022-07-29T09:03:37;9.82;;;3.10;;
25263;SDS011;13211;51.796;5.808;2022-07-29T09:06:07;8.18;;;3.30;;
25263;SDS011;13211;51.796;5.808;2022-07-29T09:08:35;10.40;;;3.20;;
25263;SDS011;13211;51.796;5.808;2022-07-29T09:11:04;8.48;;;3.42;;
25263;SDS011;13211;51.796;5.808;2022-07-29T09:13:33;8.38;;;3.50;;
25263;SDS011;13211;51.796;5.808;2022-07-29T09:16:02;5.93;;;3.15;;
25263;SDS011;13211;51.796;5.808;2022-07-29T09:18:38;6.35;;;2.80;;
25263;SDS011;13211;51.796;5.808;2022-07-29T09:21:09;6.55;;;2.65;;
25263;SDS011;13211;51.796;5.808;2022-07-29T09:24:10;16.02;;;3.03;;
25263;SDS011;13211;51.796;5.808;2022-07-29T09:26:42;8.88;;;3.53;;
25263;SDS011;13211;51.796;5.808;2022-07-29T09:31:45;7.70;;;3.50;;
25263;SDS011;13211;51.796;5.808;2022-07-29T09:34:21;8.45;;;3.28;;
25263;SDS011;13211;51.796;5.808;2022-07-29T09:36:50;8.20;;;3.05;;
25263;SDS011;13211;51.796;5.808;2022-07-29T09:39:30;10.75;;;3.35;;
25263;SDS011;13211;51.796;5.808;2022-07-29T09:41:59;8.95;;;3.05;;
25263;SDS011;13211;51.796;5.808;2022-07-29T09:44:45;8.80;;;3.10;;
25263;SDS011;13211;51.796;5.808;2022-07-29T09:47:18;6.07;;;2.60;;
25263;SDS011;13211;51.796;5.808;2022-07-29T09:52:27;10.50;;;2.75;;
25263;SDS011;13211;51.796;5.808;2022-07-29T09:55:05;9.02;;;3.00;;
25263;SDS011;13211;51.796;5.808;2022-07-29T09:57:35;6.55;;;2.90;;
25263;SDS011;13211;51.796;5.808;2022-07-29T10:00:04;8.70;;;2.78;;
25263;SDS011;13211;51.796;5.808;2022-07-29T10:02:38;7.90;;;2.60;;
25263;SDS011;13211;51.796;5.808;2022-07-29T10:05:17;6.78;;;2.88;;
25263;SDS011;13211;51.796;5.808;2022-07-29T10:08:02;5.20;;;2.72;;
25263;SDS011;13211;51.796;5.808;2022-07-29T10:10:32;7.15;;;2.42;;
25263;SDS011;13211;51.796;5.808;2022-07-29T10:15:41;7.75;;;2.42;;
25263;SDS011;13211;51.796;5.808;2022-07-29T10:18:17;6.28;;;2.10;;
25263;SDS011;13211;51.796;5.808;2022-07-29T10:20:49;5.47;;;2.22;;
25263;SDS011;13211;51.796;5.808;2022-07-29T10:23:17;5.85;;;2.75;;
25263;SDS011;13211;51.796;5.808;2022-07-29T10:25:47;9.10;;;2.95;;
25263;SDS011;13211;51.796;5.808;2022-07-29T10:28:19;8.52;;;2.78;;
25263;SDS011;13211;51.796;5.808;2022-07-29T10:30:58;7.32;;;2.25;;
25263;SDS011;13211;51.796;5.808;2022-07-29T10:39:05;5.57;;;2.45;;
25263;SDS011;13211;51.796;5.808;2022-07-29T10:44:34;12.48;;;2.92;;
25263;SDS011;13211;51.796;5.808;2022-07-29T10:47:06;5.78;;;2.20;;
25263;SDS011;13211;51.796;5.808;2022-07-29T10:49:35;10.35;;;1.95;;
25263;SDS011;13211;51.796;5.808;2022-07-29T10:52:09;8.05;;;2.20;;
25263;SDS011;13211;51.796;5.808;2022-07-29T11:02:43;6.32;;;1.70;;
25263;SDS011;13211;51.796;5.808;2022-07-29T11:05:19;6.50;;;2.15;;
25263;SDS011;13211;51.796;5.808;2022-07-29T11:10:50;4.97;;;1.85;;
25263;SDS011;13211;51.796;5.808;2022-07-29T11:16:14;11.27;;;2.63;;
25263;SDS011;13211;51.796;5.808;2022-07-29T11:22:36;5.55;;;2.10;;
25263;SDS011;13211;51.796;5.808;2022-07-29T11:25:16;9.25;;;2.40;;
25263;SDS011;13211;51.796;5.808;2022-07-29T11:28:13;5.82;;;2.03;;
25263;SDS011;13211;51.796;5.808;2022-07-29T11:30:51;8.63;;;2.55;;
25263;SDS011;13211;51.796;5.808;2022-07-29T11:33:30;4.95;;;2.03;;
25263;SDS011;13211;51.796;5.808;2022-07-29T11:36:22;8.18;;;2.30;;
25263;SDS011;13211;51.796;5.808;2022-07-29T11:39:26;5.05;;;1.70;;
25263;SDS011;13211;51.796;5.808;2022-07-29T11:45:16;6.40;;;1.70;;
25263;SDS011;13211;51.796;5.808;2022-07-29T11:50:56;6.53;;;1.88;;
25263;SDS011;13211;51.796;5.808;2022-07-29T11:53:26;5.50;;;1.83;;
25263;SDS011;13211;51.796;5.808;2022-07-29T11:56:16;4.50;;;1.60;;
25263;SDS011;13211;51.796;5.808;2022-07-29T11:59:09;4.28;;;1.63;;
25263;SDS011;13211;51.796;5.808;2022-07-29T12:01:51;8.43;;;1.52;;
25263;SDS011;13211;51.796;5.808;2022-07-29T12:04:49;7.10;;;1.85;;
25263;SDS011;13211;51.796;5.808;2022-07-29T12:10:01;7.35;;;1.95;;
25263;SDS011;13211;51.796;5.808;2022-07-29T12:12:32;5.97;;;1.75;;
25263;SDS011;13211;51.796;5.808;2022-07-29T12:17:41;5.38;;;1.60;;
25263;SDS011;13211;51.796;5.808;2022-07-29T12:20:09;3.80;;;1.83;;
25263;SDS011;13211;51.796;5.808;2022-07-29T12:22:40;11.73;;;1.77;;
25263;SDS011;13211;51.796;5.808;2022-07-29T12:25:12;5.07;;;1.40;;
25263;SDS011;13211;51.796;5.808;2022-07-29T12:28:01;4.03;;;1.60;;
25263;SDS011;13211;51.796;5.808;2022-07-29T12:30:37;6.63;;;1.73;;
25263;SDS011;13211;51.796;5.808;2022-07-29T12:33:23;4.63;;;1.58;;
25263;SDS011;13211;51.796;5.808;2022-07-29T12:35:54;6.07;;;1.73;;
25263;SDS011;13211;51.796;5.808;2022-07-29T12:38:33;4.45;;;1.50;;
25263;SDS011;13211;51.796;5.808;2022-07-29T12:41:02;4.50;;;1.40;;
25263;SDS011;13211;51.796;5.808;2022-07-29T12:43:30;5.05;;;1.35;;
25263;SDS011;13211;51.796;5.808;2022-07-29T12:46:12;5.55;;;1.40;;
25263;SDS011;13211;51.796;5.808;2022-07-29T12:48:43;7.20;;;1.45;;
25263;SDS011;13211;51.796;5.808;2022-07-29T12:51:18;5.15;;;1.38;;
25263;SDS011;13211;51.796;5.808;2022-07-29T12:54:06;6.70;;;1.60;;
25263;SDS011;13211;51.796;5.808;2022-07-29T12:56:35;4.43;;;1.40;;
25263;SDS011;13211;51.796;5.808;2022-07-29T12:59:18;4.43;;;1.33;;
25263;SDS011;13211;51.796;5.808;2022-07-29T13:01:51;2.60;;;0.82;;
25263;SDS011;13211;51.796;5.808;2022-07-29T13:04:28;8.00;;;1.40;;
25263;SDS011;13211;51.796;5.808;2022-07-29T13:07:01;3.15;;;1.23;;
25263;SDS011;13211;51.796;5.808;2022-07-29T13:09:40;3.45;;;1.02;;
25263;SDS011;13211;51.796;5.808;2022-07-29T13:12:12;6.72;;;1.60;;
25263;SDS011;13211;51.796;5.808;2022-07-29T13:14:42;5.38;;;1.40;;
25263;SDS011;13211;51.796;5.808;2022-07-29T13:17:17;4.80;;;1.30;;
25263;SDS011;13211;51.796;5.808;2022-07-29T13:20:05;5.80;;;1.50;;
25263;SDS011;13211;51.796;5.808;2022-07-29T13:22:39;12.20;;;1.45;;
25263;SDS011;13211;51.796;5.808;2022-07-29T13:25:09;5.47;;;1.17;;
25263;SDS011;13211;51.796;5.808;2022-07-29T13:27:38;4.75;;;1.50;;
25263;SDS011;13211;51.796;5.808;2022-07-29T13:30:08;6.53;;;1.35;;
25263;SDS011;13211;51.796;5.808;2022-07-29T13:32:37;4.13;;;1.35;;
25263;SDS011;13211;51.796;5.808;2022-07-29T13:35:06;4.80;;;1.40;;
25263;SDS011;13211;51.796;5.808;2022-07-29T13:37:35;6.70;;;1.77;;
25263;SDS011;13211;51.796;5.808;2022-07-29T13:40:08;3.50;;;1.75;;
25263;SDS011;13211;51.796;5.808;2022-07-29T13:42:37;4.72;;;1.30;;
25263;SDS011;13211;51.796;5.808;2022-07-29T13:45:05;5.30;;;1.40;;
25263;SDS011;13211;51.796;5.808;2022-07-29T13:47:34;6.33;;;1.70;;
25263;SDS011;13211;51.796;5.808;2022-07-29T13:50:02;3.60;;;1.55;;
25263;SDS011;13211;51.796;5.808;2022-07-29T13:52:32;4.53;;;1.48;;
25263;SDS011;13211;51.796;5.808;2022-07-29T13:55:01;3.07;;;1.20;;
25263;SDS011;13211;51.796;5.808;2022-07-29T13:57:31;4.72;;;1.58;;
25263;SDS011;13211;51.796;5.808;2022-07-29T13:59:58;4.68;;;1.40;;
25263;SDS011;13211;51.796;5.808;2022-07-29T14:02:34;3.10;;;1.17;;
25263;SDS011;13211;51.796;5.808;2022-07-29T14:05:03;3.20;;;1.45;;
25263;SDS011;13211;51.796;5.808;2022-07-29T14:07:34;3.15;;;1.40;;
25263;SDS011;13211;51.796;5.808;2022-07-29T14:10:02;4.00;;;1.40;;
25263;SDS011;13211;51.796;5.808;2022-07-29T14:12:30;4.78;;;1.27;;
25263;SDS011;13211;51.796;5.808;2022-07-29T14:14:58;5.97;;;1.38;;
25263;SDS011;13211;51.796;5.808;2022-07-29T14:17:26;3.97;;;1.50;;
25263;SDS011;13211;51.796;5.808;2022-07-29T14:19:54;2.58;;;1.23;;
25263;SDS011;13211;51.796;5.808;2022-07-29T14:22:21;4.05;;;1.30;;
25263;SDS011;13211;51.796;5.808;2022-07-29T14:27:19;3.88;;;1.52;;
25263;SDS011;13211;51.796;5.808;2022-07-29T14:30:04;8.13;;;1.55;;
25263;SDS011;13211;51.796;5.808;2022-07-29T14:32:33;2.75;;;1.15;;
25263;SDS011;13211;51.796;5.808;2022-07-29T14:35:01;5.32;;;1.67;;
25263;SDS011;13211;51.796;5.808;2022-07-29T14:37:29;8.00;;;1.40;;
25263;SDS011;13211;51.796;5.808;2022-07-29T14:40:06;5.57;;;1.38;;
25263;SDS011;13211;51.796;5.808;2022-07-29T14:42:35;9.32;;;1.35;;
25263;SDS011;13211;51.796;5.808;2022-07-29T14:45:07;6.80;;;1.30;;
25263;SDS011;13211;51.796;5.808;2022-07-29T14:47:36;6.75;;;1.30;;
25263;SDS011;13211;51.796;5.808;2022-07-29T14:50:06;4.07;;;1.58;;
25263;SDS011;13211;51.796;5.808;2022-07-29T14:52:35;11.48;;;1.55;;
25263;SDS011;13211;51.796;5.808;2022-07-29T14:55:04;4.32;;;1.70;;
25263;SDS011;13211;51.796;5.808;2022-07-29T14:57:45;3.50;;;1.33;;
25263;SDS011;13211;51.796;5.808;2022-07-29T15:00:13;5.03;;;1.38;;
25263;SDS011;13211;51.796;5.808;2022-07-29T15:02:45;7.97;;;1.55;;
25263;SDS011;13211;51.796;5.808;2022-07-29T15:05:29;4.53;;;1.38;;
25263;SDS011;13211;51.796;5.808;2022-07-29T15:07:59;10.23;;;1.70;;
25263;SDS011;13211;51.796;5.808;2022-07-29T15:10:27;4.50;;;1.60;;
25263;SDS011;13211;51.796;5.808;2022-07-29T15:12:55;5.95;;;1.52;;
25263;SDS011;13211;51.796;5.808;2022-07-29T15:15:24;4.05;;;1.60;;
25263;SDS011;13211;51.796;5.808;2022-07-29T15:17:53;4.95;;;1.30;;
25263;SDS011;13211;51.796;5.808;2022-07-29T15:20:23;8.18;;;1.60;;
25263;SDS011;13211;51.796;5.808;2022-07-29T15:22:53;4.27;;;1.40;;
25263;SDS011;13211;51.796;5.808;2022-07-29T15:25:22;5.03;;;1.55;;
25263;SDS011;13211;51.796;5.808;2022-07-29T15:27:57;3.30;;;1.27;;
25263;SDS011;13211;51.796;5.808;2022-07-29T15:30:29;4.45;;;1.23;;
25263;SDS011;13211;51.796;5.808;2022-07-29T15:32:59;5.88;;;1.58;;
25263;SDS011;13211;51.796;5.808;2022-07-29T15:35:28;5.05;;;1.50;;
25263;SDS011;13211;51.796;5.808;2022-07-29T15:37:56;4.55;;;1.30;;
25263;SDS011;13211;51.796;5.808;2022-07-29T15:40:27;6.78;;;1.45;;
25263;SDS011;13211;51.796;5.808;2022-07-29T15:42:55;3.95;;;1.73;;
25263;SDS011;13211;51.796;5.808;2022-07-29T15:45:23;5.68;;;1.95;;
25263;SDS011;13211;51.796;5.808;2022-07-29T15:47:57;5.65;;;1.90;;
25263;SDS011;13211;51.796;5.808;2022-07-29T15:50:25;6.45;;;2.00;;
25263;SDS011;13211;51.796;5.808;2022-07-29T15:52:53;5.30;;;1.80;;
25263;SDS011;13211;51.796;5.808;2022-07-29T15:55:22;8.85;;;1.80;;
25263;SDS011;13211;51.796;5.808;2022-07-29T15:57:50;4.97;;;1.40;;
25263;SDS011;13211;51.796;5.808;2022-07-29T16:00:24;3.70;;;1.52;;
25263;SDS011;13211;51.796;5.808;2022-07-29T16:02:52;9.10;;;2.15;;
25263;SDS011;13211;51.796;5.808;2022-07-29T16:05:20;6.72;;;2.10;;
25263;SDS011;13211;51.796;5.808;2022-07-29T16:07:48;7.45;;;1.58;;
25263;SDS011;13211;51.796;5.808;2022-07-29T16:10:16;7.20;;;2.10;;
25263;SDS011;13211;51.796;5.808;2022-07-29T16:12:44;5.18;;;1.95;;
25263;SDS011;13211;51.796;5.808;2022-07-29T16:15:12;3.72;;;1.63;;
25263;SDS011;13211;51.796;5.808;2022-07-29T16:17:40;7.53;;;1.85;;
25263;SDS011;13211;51.796;5.808;2022-07-29T16:20:08;10.13;;;2.15;;
25263;SDS011;13211;51.796;5.808;2022-07-29T16:22:40;4.80;;;1.80;;
25263;SDS011;13211;51.796;5.808;2022-07-29T16:25:10;9.35;;;2.30;;
25263;SDS011;13211;51.796;5.808;2022-07-29T16:27:38;5.75;;;1.70;;
25263;SDS011;13211;51.796;5.808;2022-07-29T16:30:06;9.57;;;2.17;;
25263;SDS011;13211;51.796;5.808;2022-07-29T16:32:37;7.15;;;2.00;;
25263;SDS011;13211;51.796;5.808;2022-07-29T16:35:06;6.70;;;1.80;;
25263;SDS011;13211;51.796;5.808;2022-07-29T16:37:34;6.55;;;1.50;;